NEW MELONES RESERVOIR (NML)

Elevation: 1135' · STANISLAUS R basin · Operator: US Bureau of Reclamation

Provisional data, subject to change.
Query executed Friday at 15:49:37   clock

Select a sensor type for a plot of data.
Note: Reservoir Flows are daily averages.

Earlier

Date RES ELE    STORAGE    RES CHG    TOC STO    OUTFLOW    INFLOW    EVAP    FNF    RIV REL    PPT INC    SPILL    DIS PWR   
 FEET   AF   AF   AF   CFS   CFS   CFS   CFS   CFS   INCHES   CFS   CFS  
12/05/2005 1049.29 1967207 -110 1970000 1227 1186 14 848 0 0.00 0 1227
12/06/2005 1049.47 1969180 1973 1970000 40 1056 21 717 0 0.00 0 40
12/07/2005 1049.67 1971373 2193 1970000 40 1157 11 833 0 0.00 0 40
12/08/2005 1049.89 1973784 2411 1970000 40 1260 4 933 0 0.10 0 40
12/09/2005 1049.91 1974003 219 1970000 710 838 18 512 0 0.01 0 710
12/10/2005 1049.89 1973784 -219 1970000 791 695 14 353 0 0.01 0 791
12/11/2005 1050.00 1974990 1206 1970000 34 660 18 299 0 0.00 0 34
12/12/2005 1050.02 1975210 220 1970000 827 963 25 623 0 0.00 0 827
12/13/2005 1050.19 1977080 1870 1970000 33 990 14 642 0 0.00 0 33
12/14/2005 1050.37 1979060 1980 1970000 33 1045 14 679 0 0.00 0 33
12/15/2005 1050.35 1978840 -220 1970000 1091 994 14 681 0 0.00 0 1091
12/16/2005 1050.54 1980930 2090 1970000 55 1116 7 719 0 0.00 0 55
12/17/2005 1050.42 1979610 -1320 1970000 1750 1089 4 729 0 0.00 0 1750
12/18/2005 1050.67 1982360 2750 1970000 724 2121 11 2033 0 1.36 0 724
12/19/2005 1050.82 1984010 1650 1970000 1020 1863 11 2102 0 1.36 0 1020
12/20/2005 1050.88 1984670 660 1970000 1154 1508 21 1493 0 0.00 0 1154
12/21/2005 1051.06 1986652 1982 1970000 933 1950 18 1904 0 0.00 0 933
12/22/2005 1051.49 1991398 4746 1970000 1656 4074 25 5849 0 1.39 0 1656
12/23/2005 1051.84 1995260 3862 1970000 1448 3402 7 4387 0 0.84 0 1448
12/24/2005 1051.71 1993826 -1434 1970000 2670 1958 11 2257 0 0.02 0 2670
12/25/2005 1051.66 1993274 -552 1970000 2417 2146 7 2312 0 0.01 0 2417
12/26/2005 1051.96 1996585 3311 1970000 2129 3805 7 4072 0 2.30 0 2129
12/27/2005 1051.86 1995481 -1104 1970000 2152 1616 21 1795 0 0.00 0 2152
12/28/2005 1051.69 1993605 -1876 1970000 4266 3327 7 4885 0 0.22 0 4266
12/29/2005 1051.42 1990625 -2980 1970000 4361 2877 18 3642 0 0.67 0 4361
12/30/2005 1051.15 1987645 -2980 1970000 4363 2868 7 4560 0 0.15 0 4363
12/31/2005 1054.67 2026677 39032 1970000 3444 23133 11 33084 0 1.53 0 3444
01/01/2006 1055.05 2030915 4238 1970000 4332 6491 22 8524 0 0.64 0 4332
01/02/2006 1056.44 2046477 15562 1970000 2997 10850 7 12496 0 1.28 0 2997
01/03/2006 1056.72 2049619 3142 1970000 5448 7054 22 7861 1724 1.45 0 3724

Later | Latest

Warning! This data is preliminary and subject to revision.

Show NML Map | Plot NML Data | 1 Month NML Data | Real-Time NML Data | NML Info